Time;durP1;ratioP1;P1;durP2;ratioP2;P2;SDS_P1;SDS_P2;PMS_P1;PMS_P2;Temp;Humidity;BMP_temperature;BMP_pressure;BME280_temperature;BME280_humidity;BME280_pressure;Samples;Min_cycle;Max_cycle;Signal;HPM_P1;HPM_P2
2022/06/28 00:00:28;;;;;;;13.50;7.50;;;;;;;;;;4918990;29;20052;-86
2022/06/28 00:03:00;;;;;;;11.13;7.35;;;;;;;;;;4916341;29;20119;-86
2022/06/28 00:05:27;;;;;;;11.75;6.85;;;;;;;;;;4916237;29;20104;-86
2022/06/28 00:08:00;;;;;;;11.75;7.82;;;;;;;;;;4916452;29;20071;-86
2022/06/28 00:10:27;;;;;;;11.75;7.35;;;;;;;;;;4914961;29;20068;-86
2022/06/28 00:12:55;;;;;;;9.52;7.18;;;;;;;;;;4916004;29;20040;-86
2022/06/28 00:18:15;;;;;;;13.82;7.30;;;;;;;;;;4915077;29;20036;-86
2022/06/28 00:20:43;;;;;;;10.27;7.53;;;;;;;;;;4914298;29;20059;-84
2022/06/28 00:23:11;;;;;;;16.63;8.38;;;;;;;;;;4897009;29;20195;-84
2022/06/28 00:26:05;;;;;;;14.20;8.20;;;;;;;;;;4904950;29;20044;-84
2022/06/28 00:28:33;;;;;;;15.30;8.77;;;;;;;;;;4909996;29;20052;-85
2022/06/28 00:31:03;;;;;;;13.63;8.68;;;;;;;;;;4912757;29;20139;-84
2022/06/28 00:33:38;;;;;;;13.73;9.18;;;;;;;;;;4916952;29;20046;-84
2022/06/28 00:36:07;;;;;;;16.45;8.98;;;;;;;;;;4911763;29;20040;-84
2022/06/28 00:38:35;;;;;;;14.27;9.43;;;;;;;;;;4918841;29;20476;-85
2022/06/28 00:41:08;;;;;;;15.75;8.73;;;;;;;;;;4900024;29;20142;-86
2022/06/28 00:43:36;;;;;;;14.95;9.18;;;;;;;;;;4898137;29;20482;-86
2022/06/28 00:46:03;;;;;;;13.23;9.02;;;;;;;;;;4899101;29;20071;-86
2022/06/28 00:48:36;;;;;;;17.17;9.32;;;;;;;;;;4911366;29;20076;-85
2022/06/28 00:51:09;;;;;;;18.95;10.38;;;;;;;;;;4913392;29;20299;-85
2022/06/28 00:53:38;;;;;;;15.25;9.57;;;;;;;;;;4914028;29;20048;-86
2022/06/28 00:56:11;;;;;;;17.67;10.35;;;;;;;;;;4912121;29;20052;-86
2022/06/28 00:58:39;;;;;;;18.50;10.45;;;;;;;;;;4917992;29;20080;-85
2022/06/28 01:01:11;;;;;;;17.60;10.07;;;;;;;;;;4912055;29;20072;-86
2022/06/28 01:03:43;;;;;;;17.35;9.93;;;;;;;;;;4887605;29;20131;-86
2022/06/28 01:06:38;;;;;;;19.85;9.60;;;;;;;;;;4919434;29;20039;-86
2022/06/28 01:09:05;;;;;;;15.90;10.32;;;;;;;;;;4912727;29;20077;-85
2022/06/28 01:11:34;;;;;;;16.20;9.95;;;;;;;;;;4892419;29;20040;-84
2022/06/28 01:14:06;;;;;;;15.93;9.75;;;;;;;;;;4907913;29;20072;-84
2022/06/28 01:16:58;;;;;;;18.75;10.00;;;;;;;;;;4910097;29;20048;-84
2022/06/28 01:20:15;;;;;;;16.50;10.13;;;;;;;;;;4891815;29;20062;-84
2022/06/28 01:23:03;;;;;;;14.82;9.13;;;;;;;;;;4916404;29;20062;-84
2022/06/28 01:25:32;;;;;;;16.10;9.98;;;;;;;;;;4915895;29;20179;-84
2022/06/28 01:28:00;;;;;;;16.88;9.40;;;;;;;;;;4910962;29;20075;-84
2022/06/28 01:30:28;;;;;;;15.30;9.10;;;;;;;;;;4893398;29;20394;-84
2022/06/28 01:33:05;;;;;;;17.25;9.20;;;;;;;;;;4914557;29;20540;-84
2022/06/28 01:35:57;;;;;;;16.67;8.98;;;;;;;;;;4919164;29;20100;-84
2022/06/28 01:38:26;;;;;;;17.45;9.50;;;;;;;;;;4904724;29;20481;-85
2022/06/28 01:41:03;;;;;;;15.43;8.88;;;;;;;;;;4914606;29;20100;-86
2022/06/28 01:46:26;;;;;;;13.68;7.88;;;;;;;;;;4908102;29;20033;-86
2022/06/28 01:49:05;;;;;;;13.18;9.30;;;;;;;;;;4902998;29;20131;-85
2022/06/28 01:51:57;;;;;;;12.52;7.90;;;;;;;;;;4911708;29;20111;-86
2022/06/28 01:54:25;;;;;;;15.05;8.93;;;;;;;;;;4899516;29;20045;-86
2022/06/28 01:57:02;;;;;;;21.90;9.70;;;;;;;;;;4911791;29;20656;-86
2022/06/28 01:59:38;;;;;;;18.30;9.55;;;;;;;;;;4902883;29;20147;-84
2022/06/28 02:02:13;;;;;;;14.15;9.05;;;;;;;;;;4900456;29;20056;-84
2022/06/28 02:05:06;;;;;;;13.43;9.05;;;;;;;;;;4921429;29;20040;-84
2022/06/28 02:07:34;;;;;;;17.15;9.18;;;;;;;;;;4908685;29;20093;-84
2022/06/28 02:10:08;;;;;;;16.65;9.45;;;;;;;;;;4911758;29;20076;-86
2022/06/28 02:12:35;;;;;;;15.95;9.15;;;;;;;;;;4897000;29;20040;-86
2022/06/28 02:15:04;;;;;;;15.20;9.68;;;;;;;;;;4916449;29;20044;-86
2022/06/28 02:17:31;;;;;;;14.85;9.43;;;;;;;;;;4910587;29;20127;-86
2022/06/28 02:19:59;;;;;;;16.25;9.15;;;;;;;;;;4909525;29;20090;-86
2022/06/28 02:22:27;;;;;;;19.92;9.75;;;;;;;;;;4897827;29;20044;-85
2022/06/28 02:25:19;;;;;;;14.82;9.00;;;;;;;;;;4916688;29;20042;-86
2022/06/28 02:27:51;;;;;;;18.00;10.00;;;;;;;;;;4916587;29;20131;-85
2022/06/28 02:30:21;;;;;;;17.25;8.88;;;;;;;;;;4912599;29;20044;-83
2022/06/28 02:32:49;;;;;;;14.68;9.32;;;;;;;;;;4913878;29;20386;-84
2022/06/28 02:40:51;;;;;;;13.75;8.50;;;;;;;;;;4928436;29;20047;-84
2022/06/28 02:43:19;;;;;;;15.32;9.13;;;;;;;;;;4898670;29;20039;-84
2022/06/28 02:46:11;;;;;;;12.65;7.82;;;;;;;;;;4913066;29;20040;-83
2022/06/28 02:48:39;;;;;;;15.00;9.07;;;;;;;;;;4919392;29;20068;-84
2022/06/28 02:51:08;;;;;;;17.45;8.90;;;;;;;;;;4916720;29;20139;-84
2022/06/28 02:53:37;;;;;;;15.50;8.48;;;;;;;;;;4909914;29;20066;-84
2022/06/28 02:56:09;;;;;;;15.48;8.93;;;;;;;;;;4913726;29;20040;-84
2022/06/28 02:59:01;;;;;;;17.75;8.85;;;;;;;;;;4901271;29;20031;-84
2022/06/28 03:01:29;;;;;;;16.38;9.40;;;;;;;;;;4903352;29;20131;-84
2022/06/28 03:03:57;;;;;;;17.13;9.77;;;;;;;;;;4883406;29;20048;-84
2022/06/28 03:06:25;;;;;;;19.13;9.93;;;;;;;;;;4910145;29;20056;-84
2022/06/28 03:09:17;;;;;;;15.65;9.25;;;;;;;;;;4899967;29;20136;-84
2022/06/28 03:11:45;;;;;;;16.35;9.18;;;;;;;;;;4898575;29;20135;-84
2022/06/28 03:14:13;;;;;;;16.92;10.05;;;;;;;;;;4896386;29;20044;-84
2022/06/28 03:17:05;;;;;;;17.80;10.30;;;;;;;;;;4908657;29;20032;-84
2022/06/28 03:19:58;;;;;;;16.30;9.52;;;;;;;;;;4899987;29;20396;-85
2022/06/28 03:22:29;;;;;;;15.88;9.48;;;;;;;;;;4914371;29;20037;-86
2022/06/28 03:24:57;;;;;;;18.25;10.00;;;;;;;;;;4915849;29;20067;-86
2022/06/28 03:27:29;;;;;;;17.50;10.23;;;;;;;;;;4892022;29;20405;-86
2022/06/28 03:30:21;;;;;;;19.08;9.82;;;;;;;;;;4910513;29;20036;-84
2022/06/28 03:32:49;;;;;;;17.52;10.13;;;;;;;;;;4896431;29;20040;-84
2022/06/28 03:35:27;;;;;;;19.48;11.02;;;;;;;;;;4914835;29;20107;-84
2022/06/28 03:37:55;;;;;;;16.70;10.32;;;;;;;;;;4882368;29;20048;-84
2022/06/28 03:40:35;;;;;;;16.23;10.50;;;;;;;;;;4915275;29;20408;-86
2022/06/28 03:43:07;;;;;;;20.17;10.63;;;;;;;;;;4901976;29;20052;-86
2022/06/28 03:45:35;;;;;;;16.60;9.68;;;;;;;;;;4908333;29;20127;-86
2022/06/28 03:48:25;;;;;;;17.65;10.00;;;;;;;;;;4916124;29;20081;-85
2022/06/28 03:51:17;;;;;;;22.98;11.05;;;;;;;;;;4916115;29;20127;-84
2022/06/28 03:54:35;;;;;;;20.30;10.02;;;;;;;;;;4916508;29;20051;-84
2022/06/28 03:57:39;;;;;;;16.48;10.98;;;;;;;;;;4910878;29;20473;-84
2022/06/28 04:00:31;;;;;;;19.70;10.73;;;;;;;;;;4912695;29;20036;-84
2022/06/28 04:03:00;;;;;;;19.55;11.23;;;;;;;;;;4900478;29;20046;-84
2022/06/28 04:05:41;;;;;;;15.88;9.70;;;;;;;;;;4912067;29;20098;-84
2022/06/28 04:08:08;;;;;;;19.08;9.80;;;;;;;;;;4892627;29;20080;-84
2022/06/28 04:10:42;;;;;;;15.75;9.68;;;;;;;;;;4920314;29;20122;-84
2022/06/28 04:13:21;;;;;;;17.25;9.27;;;;;;;;;;4914197;29;20100;-84
2022/06/28 04:15:49;;;;;;;15.60;9.50;;;;;;;;;;4917214;29;20099;-84
2022/06/28 04:18:21;;;;;;;14.95;9.32;;;;;;;;;;4897089;29;20048;-85
2022/06/28 04:21:11;;;;;;;13.60;8.75;;;;;;;;;;4895850;29;20116;-86
2022/06/28 04:24:05;;;;;;;15.23;8.13;;;;;;;;;;4915585;29;20047;-86
2022/06/28 04:26:35;;;;;;;14.93;8.98;;;;;;;;;;4912830;29;20063;-86
2022/06/28 04:29:11;;;;;;;16.50;8.35;;;;;;;;;;4898782;29;20058;-85
2022/06/28 04:31:39;;;;;;;15.10;7.55;;;;;;;;;;4896056;29;20100;-84
2022/06/28 04:34:07;;;;;;;13.10;8.70;;;;;;;;;;4912875;29;20421;-82
2022/06/28 04:36:37;;;;;;;13.50;8.50;;;;;;;;;;4911198;29;20080;-83
2022/06/28 04:39:09;;;;;;;15.45;8.18;;;;;;;;;;4897120;29;20039;-86
2022/06/28 04:41:57;;;;;;;14.05;8.48;;;;;;;;;;4915422;29;20911;-86
2022/06/28 04:44:49;;;;;;;14.77;8.45;;;;;;;;;;4892876;29;20068;-86
2022/06/28 04:47:23;;;;;;;14.15;8.68;;;;;;;;;;4913823;29;20066;-85
2022/06/28 04:49:51;;;;;;;16.95;8.50;;;;;;;;;;4897313;29;20051;-85
2022/06/28 04:52:23;;;;;;;13.45;8.52;;;;;;;;;;4913890;29;20044;-85
2022/06/28 04:54:53;;;;;;;16.05;8.32;;;;;;;;;;4898921;29;20582;-85
2022/06/28 04:57:43;;;;;;;12.18;8.18;;;;;;;;;;4917444;29;20031;-85
2022/06/28 05:00:18;;;;;;;11.32;7.82;;;;;;;;;;4911344;29;20040;-85
2022/06/28 05:02:53;;;;;;;17.63;7.65;;;;;;;;;;4896293;29;20071;-85
2022/06/28 05:08:34;;;;;;;12.88;7.82;;;;;;;;;;4908499;29;20057;-84
2022/06/28 05:11:03;;;;;;;14.30;8.23;;;;;;;;;;4898345;29;20036;-83
2022/06/28 05:13:51;;;;;;;16.08;8.48;;;;;;;;;;4901660;29;20059;-83
2022/06/28 05:16:20;;;;;;;15.27;7.95;;;;;;;;;;4906724;29;20123;-83
2022/06/28 05:18:47;;;;;;;11.68;8.23;;;;;;;;;;4911879;29;20048;-83
2022/06/28 05:21:19;;;;;;;13.32;8.05;;;;;;;;;;4902692;29;20059;-85
2022/06/28 05:24:11;;;;;;;15.45;8.95;;;;;;;;;;4914200;29;20054;-86
2022/06/28 05:26:45;;;;;;;14.85;8.45;;;;;;;;;;4898693;29;20056;-87
2022/06/28 05:29:16;;;;;;;19.27;8.65;;;;;;;;;;4908856;29;20559;-87
2022/06/28 05:31:47;;;;;;;10.27;7.68;;;;;;;;;;4896712;29;20062;-82
2022/06/28 05:34:41;;;;;;;16.38;9.02;;;;;;;;;;4903412;29;20052;-83
2022/06/28 05:37:13;;;;;;;16.98;9.63;;;;;;;;;;4907974;29;20036;-83
2022/06/28 05:39:46;;;;;;;14.18;9.05;;;;;;;;;;4913402;29;22108;-86
2022/06/28 05:42:18;;;;;;;14.15;9.07;;;;;;;;;;4916614;29;20054;-86
2022/06/28 05:44:45;;;;;;;15.43;10.00;;;;;;;;;;4913018;29;20036;-87
2022/06/28 05:47:13;;;;;;;14.95;9.82;;;;;;;;;;4920972;29;20525;-88
2022/06/28 05:49:45;;;;;;;17.77;10.13;;;;;;;;;;4911615;29;20170;-84
2022/06/28 05:52:17;;;;;;;13.38;10.15;;;;;;;;;;4903624;29;20040;-84
2022/06/28 05:54:45;;;;;;;17.58;11.50;;;;;;;;;;4902512;29;20911;-84
2022/06/28 05:57:13;;;;;;;18.33;11.07;;;;;;;;;;4910109;29;20040;-84
2022/06/28 06:00:08;;;;;;;18.55;12.02;;;;;;;;;;4913819;29;20178;-87
2022/06/28 06:02:41;;;;;;;20.17;12.57;;;;;;;;;;4895593;29;20523;-86
2022/06/28 06:05:09;;;;;;;19.60;12.63;;;;;;;;;;4893302;29;20172;-87
2022/06/28 06:07:45;;;;;;;16.17;12.05;;;;;;;;;;4909326;29;20121;-87
2022/06/28 06:10:37;;;;;;;15.27;10.80;;;;;;;;;;4918454;29;20413;-84
2022/06/28 06:13:10;;;;;;;16.42;11.93;;;;;;;;;;4904918;29;20044;-84
2022/06/28 06:15:37;;;;;;;18.33;13.10;;;;;;;;;;4908149;29;20073;-84
2022/06/28 06:18:06;;;;;;;22.52;12.48;;;;;;;;;;4915364;29;20404;-84
2022/06/28 06:20:33;;;;;;;19.50;12.57;;;;;;;;;;4900408;29;20048;-84
2022/06/28 06:23:01;;;;;;;20.20;11.13;;;;;;;;;;4912432;29;20552;-84
2022/06/28 06:25:47;;;;;;;16.13;10.73;;;;;;;;;;4916016;29;20070;-84
2022/06/28 06:28:39;;;;;;;15.05;9.43;;;;;;;;;;4920285;29;20032;-85
2022/06/28 06:31:09;;;;;;;16.25;9.20;;;;;;;;;;4896603;29;20698;-85
2022/06/28 06:34:01;;;;;;;11.70;8.25;;;;;;;;;;4913175;29;20051;-85
2022/06/28 06:36:47;;;;;;;14.38;7.97;;;;;;;;;;4919569;29;20147;-85
2022/06/28 06:39:22;;;;;;;11.98;8.40;;;;;;;;;;4914668;29;20096;-85
2022/06/28 06:42:02;;;;;;;11.70;7.95;;;;;;;;;;4904566;29;20058;-85
2022/06/28 06:44:29;;;;;;;11.00;7.80;;;;;;;;;;4900164;29;20036;-85
2022/06/28 06:47:02;;;;;;;9.90;6.30;;;;;;;;;;4914422;29;20126;-85
2022/06/28 06:49:29;;;;;;;13.23;7.05;;;;;;;;;;4917216;29;20040;-85
2022/06/28 06:52:21;;;;;;;11.18;6.45;;;;;;;;;;4896411;29;20124;-84
2022/06/28 06:54:49;;;;;;;10.05;6.65;;;;;;;;;;4901356;29;20056;-85
2022/06/28 06:57:45;;;;;;;;;;;;;;;;;;4911764;29;20040;-85
2022/06/28 07:00:37;;;;;;;10.32;6.57;;;;;;;;;;4921539;29;19950;-85
2022/06/28 07:03:29;;;;;;;11.07;5.72;;;;;;;;;;4923215;29;20093;-88
2022/06/28 07:06:23;;;;;;;8.02;5.93;;;;;;;;;;4913365;29;20040;-87
2022/06/28 07:09:02;;;;;;;12.45;6.28;;;;;;;;;;4895129;29;20050;-85
2022/06/28 07:11:32;;;;;;;11.05;6.30;;;;;;;;;;4907178;29;20461;-85
2022/06/28 07:14:00;;;;;;;11.93;7.00;;;;;;;;;;4886144;29;20048;-85
2022/06/28 07:17:22;;;;;;;9.30;5.53;;;;;;;;;;4913081;29;20519;-84
2022/06/28 07:19:49;;;;;;;12.52;5.75;;;;;;;;;;4916963;29;20548;-84
2022/06/28 07:22:17;;;;;;;7.22;5.05;;;;;;;;;;4918840;29;20040;-85
2022/06/28 07:25:13;;;;;;;8.35;5.28;;;;;;;;;;4917532;29;20040;-84
2022/06/28 07:27:41;;;;;;;8.60;5.70;;;;;;;;;;4906601;29;20102;-85
2022/06/28 07:30:35;;;;;;;7.05;5.25;;;;;;;;;;4921522;29;20032;-85
2022/06/28 07:33:10;;;;;;;6.70;5.32;;;;;;;;;;4894179;29;20492;-85
2022/06/28 07:35:38;;;;;;;10.88;5.43;;;;;;;;;;4884887;29;20109;-84
2022/06/28 07:38:10;;;;;;;10.00;5.63;;;;;;;;;;4909845;29;20056;-85
2022/06/28 07:40:59;;;;;;;10.05;5.72;;;;;;;;;;4917299;29;20048;-87
2022/06/28 07:43:58;;;;;;;8.88;5.53;;;;;;;;;;4901114;29;20064;-88
2022/06/28 07:46:29;;;;;;;7.60;4.68;;;;;;;;;;4915018;29;20055;-87
2022/06/28 07:48:57;;;;;;;7.90;4.10;;;;;;;;;;4906996;29;20035;-85
2022/06/28 07:54:19;;;;;;;7.38;3.80;;;;;;;;;;4912275;29;20051;-85
2022/06/28 07:56:55;;;;;;;9.18;3.67;;;;;;;;;;4896049;29;20043;-84
2022/06/28 07:59:23;;;;;;;5.22;3.20;;;;;;;;;;4897350;29;20167;-85
2022/06/28 08:01:51;;;;;;;7.50;2.90;;;;;;;;;;4895024;29;20520;-84
2022/06/28 08:04:31;;;;;;;5.80;2.92;;;;;;;;;;4897888;29;20050;-85
2022/06/28 08:06:59;;;;;;;4.35;2.90;;;;;;;;;;4910316;29;20052;-85
2022/06/28 08:09:31;;;;;;;5.88;2.50;;;;;;;;;;4894220;29;20108;-88
2022/06/28 08:11:59;;;;;;;7.30;3.30;;;;;;;;;;4907519;29;20042;-88
2022/06/28 08:14:37;;;;;;;5.88;3.00;;;;;;;;;;4896375;29;20041;-87
2022/06/28 08:17:09;;;;;;;6.75;2.80;;;;;;;;;;4907171;29;20654;-87
2022/06/28 08:22:30;;;;;;;4.88;2.40;;;;;;;;;;4914862;29;20048;-88
2022/06/28 08:25:21;;;;;;;4.15;2.50;;;;;;;;;;4919194;29;20067;-87
2022/06/28 08:27:49;;;;;;;5.78;2.28;;;;;;;;;;4913800;29;20123;-88
2022/06/28 08:30:18;;;;;;;6.75;2.33;;;;;;;;;;4898786;29;20412;-85
2022/06/28 08:32:49;;;;;;;5.25;1.90;;;;;;;;;;4881033;29;20135;-85
2022/06/28 08:35:19;;;;;;;3.47;1.60;;;;;;;;;;4882832;29;20056;-85
2022/06/28 08:38:12;;;;;;;3.25;1.50;;;;;;;;;;4919261;29;20052;-85
2022/06/28 08:40:45;;;;;;;4.38;1.50;;;;;;;;;;4907126;29;20091;-86
2022/06/28 08:43:13;;;;;;;3.55;1.58;;;;;;;;;;4887828;29;20045;-85
2022/06/28 08:45:43;;;;;;;4.82;2.00;;;;;;;;;;4914365;29;20063;-85
2022/06/28 08:48:25;;;;;;;4.22;1.77;;;;;;;;;;4913446;29;20059;-85
2022/06/28 08:50:53;;;;;;;3.33;1.50;;;;;;;;;;4909800;29;20480;-87
2022/06/28 08:53:31;;;;;;;3.75;1.10;;;;;;;;;;4916246;29;20047;-87
2022/06/28 08:56:10;;;;;;;4.80;1.48;;;;;;;;;;4893754;29;20046;-87
2022/06/28 08:58:44;;;;;;;2.47;1.17;;;;;;;;;;4917135;29;20028;-87
2022/06/28 09:01:13;;;;;;;5.03;1.30;;;;;;;;;;4905110;29;20064;-87
2022/06/28 09:03:49;;;;;;;3.65;1.42;;;;;;;;;;4917997;29;20518;-87
2022/06/28 09:06:17;;;;;;;4.53;1.70;;;;;;;;;;4919967;29;20054;-87
2022/06/28 09:09:17;;;;;;;5.80;1.63;;;;;;;;;;4903822;29;20041;-87
2022/06/28 09:11:52;;;;;;;6.25;1.90;;;;;;;;;;4913095;29;20127;-87
2022/06/28 09:14:46;;;;;;;7.25;1.65;;;;;;;;;;4905831;29;20056;-87
2022/06/28 09:17:27;;;;;;;4.65;1.50;;;;;;;;;;4897206;29;20044;-87
2022/06/28 09:20:08;;;;;;;4.43;1.25;;;;;;;;;;4918926;29;20036;-87
2022/06/28 09:22:41;;;;;;;4.50;1.13;;;;;;;;;;4894492;29;20131;-87
2022/06/28 09:25:12;;;;;;;4.15;1.27;;;;;;;;;;4896892;29;20067;-87
2022/06/28 09:27:42;;;;;;;3.45;1.00;;;;;;;;;;4911004;29;20568;-87
2022/06/28 09:30:12;;;;;;;4.07;1.30;;;;;;;;;;4895249;29;20047;-87
2022/06/28 09:32:45;;;;;;;3.38;1.25;;;;;;;;;;4895627;29;20051;-88
2022/06/28 09:35:14;;;;;;;4.22;1.00;;;;;;;;;;4901609;29;21056;-87
2022/06/28 09:37:53;;;;;;;3.97;1.30;;;;;;;;;;4911801;29;20041;-87
2022/06/28 09:40:31;;;;;;;3.08;1.00;;;;;;;;;;4893543;29;20059;-87
2022/06/28 09:43:05;;;;;;;2.83;1.10;;;;;;;;;;4907195;29;20056;-87
2022/06/28 09:45:32;;;;;;;4.50;1.17;;;;;;;;;;4926479;29;20048;-88
2022/06/28 09:48:00;;;;;;;3.90;1.02;;;;;;;;;;4900994;29;20111;-88
2022/06/28 09:50:38;;;;;;;4.22;0.90;;;;;;;;;;4914241;29;20131;-87
2022/06/28 09:53:06;;;;;;;3.08;0.80;;;;;;;;;;4918300;29;20047;-88
2022/06/28 09:55:38;;;;;;;5.75;0.82;;;;;;;;;;4918388;29;20068;-88
2022/06/28 09:58:31;;;;;;;2.58;0.70;;;;;;;;;;4920833;29;20062;-87
2022/06/28 10:00:58;;;;;;;2.55;0.80;;;;;;;;;;4905007;29;20083;-86
2022/06/28 10:03:27;;;;;;;1.95;0.90;;;;;;;;;;4911280;29;20048;-86
2022/06/28 10:05:59;;;;;;;5.30;0.87;;;;;;;;;;4913470;29;20048;-86
2022/06/28 10:08:27;;;;;;;4.07;0.90;;;;;;;;;;4919661;29;20044;-88
2022/06/28 10:10:56;;;;;;;4.38;1.00;;;;;;;;;;4921901;29;20417;-86
2022/06/28 10:16:43;;;;;;;3.70;0.90;;;;;;;;;;4917635;29;20043;-86
2022/06/28 10:19:17;;;;;;;1.50;0.85;;;;;;;;;;4922212;29;20191;-88
2022/06/28 10:21:51;;;;;;;4.30;0.85;;;;;;;;;;4920884;29;20040;-88
2022/06/28 10:24:21;;;;;;;5.68;0.93;;;;;;;;;;4897086;29;20068;-88
2022/06/28 10:27:18;;;;;;;3.25;0.98;;;;;;;;;;4914598;29;20108;-88
2022/06/28 10:29:57;;;;;;;2.58;0.70;;;;;;;;;;4916242;29;20484;-88
2022/06/28 10:32:45;;;;;;;2.55;0.73;;;;;;;;;;4917856;29;20131;-91
2022/06/28 10:35:33;;;;;;;2.00;0.70;;;;;;;;;;4920462;29;20416;-90
2022/06/28 10:38:07;;;;;;;2.25;0.90;;;;;;;;;;4914995;29;20059;-89
2022/06/28 10:40:41;;;;;;;2.35;0.65;;;;;;;;;;4919679;29;20488;-86
2022/06/28 10:43:45;;;;;;;1.23;0.57;;;;;;;;;;4907973;29;20552;-86
2022/06/28 10:46:14;;;;;;;2.28;0.77;;;;;;;;;;4902183;29;20043;-86
2022/06/28 10:48:59;;;;;;;4.57;0.70;;;;;;;;;;4919671;29;20036;-89
2022/06/28 10:51:33;;;;;;;2.65;0.52;;;;;;;;;;4899966;29;20040;-90
2022/06/28 10:54:10;;;;;;;3.15;0.60;;;;;;;;;;4917670;29;20132;-89
2022/06/28 10:56:41;;;;;;;2.33;0.70;;;;;;;;;;4917284;29;20044;-90
2022/06/28 10:59:17;;;;;;;3.05;0.70;;;;;;;;;;4909677;29;20052;-90
2022/06/28 11:01:48;;;;;;;1.70;0.68;;;;;;;;;;4916219;29;20050;-89
2022/06/28 11:04:18;;;;;;;2.28;0.60;;;;;;;;;;4919071;29;20404;-89
2022/06/28 11:07:19;;;;;;;3.40;0.77;;;;;;;;;;4914294;29;20052;-89
2022/06/28 11:10:04;;;;;;;2.60;0.75;;;;;;;;;;4887181;29;20096;-90
2022/06/28 11:12:35;;;;;;;0.95;0.45;;;;;;;;;;4892190;29;20473;-90
2022/06/28 11:15:06;;;;;;;2.08;0.93;;;;;;;;;;4890991;29;20057;-89
2022/06/28 11:17:59;;;;;;;2.15;0.70;;;;;;;;;;4898956;29;20131;-89
2022/06/28 11:20:31;;;;;;;2.58;0.80;;;;;;;;;;4877349;29;20089;-89
2022/06/28 11:22:59;;;;;;;2.92;0.60;;;;;;;;;;4876693;29;20553;-88
2022/06/28 11:27:19;;;;;;;1.35;0.50;;;;;;;;;;4896757;29;20053;-88
2022/06/28 11:28:27;;;;;;;3.45;0.77;;;;;;;;;;4895707;29;20415;-86
2022/06/28 11:31:01;;;;;;;3.15;0.82;;;;;;;;;;4885903;29;20097;-84
2022/06/28 11:33:56;;;;;;;4.32;1.10;;;;;;;;;;4886922;29;20049;-85
2022/06/28 11:36:28;;;;;;;2.78;0.60;;;;;;;;;;4872145;29;20964;-85
2022/06/28 11:39:15;;;;;;;2.75;0.93;;;;;;;;;;4885445;29;20068;-87
2022/06/28 11:41:49;;;;;;;2.10;0.73;;;;;;;;;;4881316;29;20943;-85
2022/06/28 11:44:16;;;;;;;2.63;0.80;;;;;;;;;;4890451;29;20575;-85
2022/06/28 11:47:09;;;;;;;3.75;0.82;;;;;;;;;;4896793;29;20526;-85
2022/06/28 11:50:18;;;;;;;2.80;0.65;;;;;;;;;;4911353;29;20175;-87
2022/06/28 11:52:55;;;;;;;2.55;0.90;;;;;;;;;;4917101;29;20505;-88
2022/06/28 11:55:46;;;;;;;1.80;0.80;;;;;;;;;;4913470;29;20448;-88
2022/06/28 11:58:39;;;;;;;3.35;0.75;;;;;;;;;;4916563;29;20044;-92
2022/06/28 12:01:19;;;;;;;2.13;0.70;;;;;;;;;;4918718;29;20048;-85
2022/06/28 12:03:47;;;;;;;3.85;0.90;;;;;;;;;;4899580;29;20143;-86
2022/06/28 12:06:43;;;;;;;3.38;0.98;;;;;;;;;;4911602;29;20048;-86
2022/06/28 12:09:44;;;;;;;2.22;0.77;;;;;;;;;;4909561;29;20431;-87
2022/06/28 12:12:11;;;;;;;1.75;0.73;;;;;;;;;;4918162;29;20036;-88
2022/06/28 12:14:39;;;;;;;3.35;1.10;;;;;;;;;;4916231;29;20050;-88
2022/06/28 12:17:07;;;;;;;4.45;1.00;;;;;;;;;;4903140;29;20435;-88
2022/06/28 12:19:38;;;;;;;2.55;0.80;;;;;;;;;;4905003;29;20032;-87
2022/06/28 12:22:16;;;;;;;2.53;0.95;;;;;;;;;;4917956;29;20231;-88
2022/06/28 12:25:10;;;;;;;1.65;0.70;;;;;;;;;;4901236;29;20036;-87
2022/06/28 12:28:04;;;;;;;2.28;0.82;;;;;;;;;;4915917;29;20063;-87
2022/06/28 12:30:31;;;;;;;2.17;0.70;;;;;;;;;;4908800;29;20040;-86
2022/06/28 12:33:24;;;;;;;3.38;0.88;;;;;;;;;;4896825;29;20065;-86
2022/06/28 12:35:57;;;;;;;2.97;0.80;;;;;;;;;;4915362;29;20051;-86
2022/06/28 12:38:50;;;;;;;1.75;0.50;;;;;;;;;;4892567;29;20044;-87
2022/06/28 12:41:19;;;;;;;2.58;0.80;;;;;;;;;;4917882;29;20445;-86
2022/06/28 12:43:47;;;;;;;4.97;1.10;;;;;;;;;;4913515;29;20092;-85
2022/06/28 12:46:15;;;;;;;2.65;0.90;;;;;;;;;;4918603;29;20048;-86
2022/06/28 12:48:43;;;;;;;3.28;0.70;;;;;;;;;;4919005;29;20052;-86
2022/06/28 12:51:11;;;;;;;2.92;0.80;;;;;;;;;;4923050;29;20516;-88
2022/06/28 12:53:39;;;;;;;3.90;0.82;;;;;;;;;;4895992;29;20068;-88
2022/06/28 12:56:13;;;;;;;3.00;1.00;;;;;;;;;;4921486;29;20036;-87
2022/06/28 12:58:42;;;;;;;2.13;0.70;;;;;;;;;;4926113;29;20059;-86
2022/06/28 13:01:10;;;;;;;2.65;0.88;;;;;;;;;;4914550;29;20571;-85
2022/06/28 13:03:38;;;;;;;4.68;1.30;;;;;;;;;;4923129;29;20122;-86
2022/06/28 13:06:12;;;;;;;3.20;0.93;;;;;;;;;;4914223;29;20068;-86
2022/06/28 13:08:39;;;;;;;1.63;0.75;;;;;;;;;;4910829;29;20046;-87
2022/06/28 13:11:08;;;;;;;2.58;0.80;;;;;;;;;;4913108;29;20043;-85
2022/06/28 13:13:35;;;;;;;3.05;1.00;;;;;;;;;;4920384;29;20496;-86
2022/06/28 13:16:04;;;;;;;2.97;0.80;;;;;;;;;;4892863;29;20051;-86
2022/06/28 13:18:42;;;;;;;2.17;0.75;;;;;;;;;;4912259;29;20237;-86
2022/06/28 13:21:10;;;;;;;3.45;0.98;;;;;;;;;;4913763;29;20075;-87
2022/06/28 13:23:38;;;;;;;3.38;1.00;;;;;;;;;;4918380;29;20048;-87
2022/06/28 13:26:29;;;;;;;2.70;1.08;;;;;;;;;;4899342;29;20040;-87
2022/06/28 13:28:57;;;;;;;3.08;0.90;;;;;;;;;;4908867;29;20115;-85
2022/06/28 13:31:33;;;;;;;4.43;0.88;;;;;;;;;;4918732;29;20043;-88
2022/06/28 13:34:26;;;;;;;2.85;0.98;;;;;;;;;;4908073;29;20516;-88
2022/06/28 13:36:53;;;;;;;2.88;1.10;;;;;;;;;;4914599;29;20119;-88
2022/06/28 13:39:21;;;;;;;6.35;1.92;;;;;;;;;;4921976;29;20035;-88
2022/06/28 13:41:49;;;;;;;3.35;1.15;;;;;;;;;;4915286;29;20036;-88
2022/06/28 13:44:17;;;;;;;2.50;1.30;;;;;;;;;;4898207;29;20107;-88
2022/06/28 13:46:53;;;;;;;3.42;1.20;;;;;;;;;;4896729;29;20474;-88
2022/06/28 13:49:53;;;;;;;4.18;1.00;;;;;;;;;;4898580;29;20032;-88
2022/06/28 13:52:22;;;;;;;2.88;0.93;;;;;;;;;;4910112;29;20040;-88
2022/06/28 13:54:55;;;;;;;3.80;1.20;;;;;;;;;;4912577;29;20070;-88
2022/06/28 13:57:25;;;;;;;3.53;1.17;;;;;;;;;;4915313;29;20501;-88
2022/06/28 13:59:55;;;;;;;4.20;1.10;;;;;;;;;;4915136;29;20138;-88
2022/06/28 14:02:23;;;;;;;4.53;1.20;;;;;;;;;;4916162;29;20047;-88
2022/06/28 14:04:57;;;;;;;4.30;1.20;;;;;;;;;;4917245;29;20087;-88
2022/06/28 14:07:25;;;;;;;3.90;1.20;;;;;;;;;;4913106;29;20044;-88
2022/06/28 14:10:17;;;;;;;3.00;1.20;;;;;;;;;;4918217;29;20047;-88
2022/06/28 14:12:49;;;;;;;3.47;1.13;;;;;;;;;;4914322;29;20046;-88
2022/06/28 14:15:17;;;;;;;3.97;1.45;;;;;;;;;;4897784;29;20143;-88
2022/06/28 14:17:50;;;;;;;3.72;1.30;;;;;;;;;;4913934;29;20043;-88
2022/06/28 14:20:18;;;;;;;3.83;1.45;;;;;;;;;;4891062;29;20071;-85
2022/06/28 14:23:12;;;;;;;2.90;1.23;;;;;;;;;;4901679;29;20044;-85
2022/06/28 14:26:03;;;;;;;3.28;1.38;;;;;;;;;;4901064;29;20048;-84
2022/06/28 14:28:32;;;;;;;4.07;1.13;;;;;;;;;;4915929;29;20048;-88
2022/06/28 14:30:59;;;;;;;3.35;1.20;;;;;;;;;;4902990;29;20060;-85
2022/06/28 14:33:51;;;;;;;3.85;1.38;;;;;;;;;;4907459;29;20048;-85
2022/06/28 14:36:19;;;;;;;2.63;1.20;;;;;;;;;;4918278;29;20512;-85
2022/06/28 14:38:51;;;;;;;3.72;1.30;;;;;;;;;;4914198;29;20510;-86
2022/06/28 14:41:23;;;;;;;3.75;1.40;;;;;;;;;;4915552;29;20503;-88
2022/06/28 14:43:57;;;;;;;3.67;1.20;;;;;;;;;;4911124;29;20049;-89
2022/06/28 14:46:25;;;;;;;3.45;1.23;;;;;;;;;;4911074;29;20131;-88
2022/06/28 14:48:53;;;;;;;2.58;1.20;;;;;;;;;;4918312;29;20055;-86
2022/06/28 14:51:21;;;;;;;7.50;1.40;;;;;;;;;;4921138;29;20036;-88
2022/06/28 14:53:59;;;;;;;2.38;1.10;;;;;;;;;;4914688;29;20047;-88
2022/06/28 14:56:26;;;;;;;4.40;1.50;;;;;;;;;;4918954;29;20048;-89
2022/06/28 14:59:00;;;;;;;2.83;1.27;;;;;;;;;;4918775;29;20050;-85
2022/06/28 15:01:33;;;;;;;3.33;1.42;;;;;;;;;;4903083;29;20063;-85
2022/06/28 15:04:01;;;;;;;3.45;1.20;;;;;;;;;;4896842;29;20481;-85
2022/06/28 15:06:29;;;;;;;3.45;1.27;;;;;;;;;;4913944;29;20050;-85
2022/06/28 15:09:02;;;;;;;3.67;1.40;;;;;;;;;;4911043;29;20048;-88
2022/06/28 15:11:32;;;;;;;3.97;1.42;;;;;;;;;;4912922;29;20893;-88
2022/06/28 15:14:00;;;;;;;4.15;1.27;;;;;;;;;;4900929;29;20044;-88
2022/06/28 15:16:53;;;;;;;4.05;1.20;;;;;;;;;;4916775;29;20430;-88
2022/06/28 15:19:21;;;;;;;4.38;1.67;;;;;;;;;;4917118;29;20051;-85
2022/06/28 15:33:09;;;;;;;3.78;1.50;;;;;;;;;;4906967;29;20075;-85
2022/06/28 15:36:08;;;;;;;4.68;1.42;;;;;;;;;;4907508;29;20067;-85
2022/06/28 15:38:36;;;;;;;4.70;1.70;;;;;;;;;;4898560;29;20044;-88
2022/06/28 15:41:04;;;;;;;4.30;1.60;;;;;;;;;;4900245;29;20585;-88
2022/06/28 15:43:31;;;;;;;4.47;1.30;;;;;;;;;;4884742;29;20073;-88
2022/06/28 15:46:04;;;;;;;3.67;1.58;;;;;;;;;;4923085;29;20048;-88
2022/06/28 15:48:31;;;;;;;3.85;1.55;;;;;;;;;;4907371;29;20509;-86
2022/06/28 15:51:00;;;;;;;4.75;1.60;;;;;;;;;;4902792;29;20047;-88
2022/06/28 15:53:27;;;;;;;3.25;1.58;;;;;;;;;;4906442;29;20522;-88
2022/06/28 15:55:55;;;;;;;4.13;1.50;;;;;;;;;;4902920;29;20056;-89
2022/06/28 15:58:27;;;;;;;3.38;1.70;;;;;;;;;;4916521;29;20084;-87
2022/06/28 16:00:59;;;;;;;3.10;1.67;;;;;;;;;;4918358;29;20124;-88